Time;durP1;ratioP1;P1;durP2;ratioP2;P2;SDS_P1;SDS_P2;PMS_P1;PMS_P2;Temp;Humidity;BMP_temperature;BMP_pressure;BME280_temperature;BME280_humidity;BME280_pressure;Samples;Min_cycle;Max_cycle;Signal;HPM_P1;HPM_P2
2023/05/05 00:01:49;;;;;;;4.60;2.20;;;;;;;16.33;52.44;100588.64;105171;1251;60862;-70
2023/05/05 00:04:21;;;;;;;3.70;2.20;;;;;;;16.28;52.56;100587.68;105403;1254;66883;-70
2023/05/05 00:06:49;;;;;;;4.30;2.20;;;;;;;16.23;52.60;100586.08;105637;1252;60512;-71
2023/05/05 00:09:16;;;;;;;2.90;1.90;;;;;;;16.20;52.70;100586.08;105604;1259;60450;-70
2023/05/05 00:11:43;;;;;;;2.40;1.90;;;;;;;16.17;52.81;100588.34;105812;1254;67537;-70
2023/05/05 00:14:10;;;;;;;5.50;2.30;;;;;;;16.14;52.85;100589.52;105700;1251;60675;-70
2023/05/05 00:16:37;;;;;;;6.20;2.30;;;;;;;16.10;52.88;100590.25;106125;1254;66487;-70
2023/05/05 00:19:05;;;;;;;4.80;2.10;;;;;;;16.05;52.96;100588.08;105424;1255;60538;-69
2023/05/05 00:21:32;;;;;;;3.90;2.20;;;;;;;15.99;53.19;100587.55;105799;1255;60448;-69
2023/05/05 00:23:59;;;;;;;5.10;2.20;;;;;;;15.95;53.20;100592.08;105425;1251;66699;-69
2023/05/05 00:26:26;;;;;;;4.60;2.60;;;;;;;15.88;53.35;100594.86;105529;1251;60704;-69
2023/05/05 00:28:54;;;;;;;7.60;2.40;;;;;;;15.83;53.44;100593.77;105707;1254;66586;-69
2023/05/05 00:31:21;;;;;;;3.80;2.20;;;;;;;15.80;53.45;100596.96;105751;1254;60481;-69
2023/05/05 00:33:48;;;;;;;4.10;2.30;;;;;;;15.76;53.59;100601.77;105480;1254;60421;-71
2023/05/05 00:36:15;;;;;;;4.70;2.60;;;;;;;15.73;53.63;100601.36;105717;1259;69277;-68
2023/05/05 00:38:42;;;;;;;3.80;2.30;;;;;;;15.70;53.80;100601.85;105503;1254;60903;-68
2023/05/05 00:41:09;;;;;;;4.40;2.60;;;;;;;15.67;53.98;100601.59;105455;1259;66539;-68
2023/05/05 00:43:36;;;;;;;4.30;2.20;;;;;;;15.64;53.97;100600.23;105577;1252;60638;-70
2023/05/05 00:46:22;;;;;;;5.30;2.10;;;;;;;15.63;53.98;100599.84;105652;1256;60536;-69
2023/05/05 00:48:49;;;;;;;4.50;2.30;;;;;;;15.62;54.01;100600.25;105391;1251;67716;-69
2023/05/05 00:51:17;;;;;;;4.40;2.20;;;;;;;15.62;53.96;100601.72;105541;1255;61050;-70
2023/05/05 00:53:45;;;;;;;4.70;2.10;;;;;;;15.62;54.03;100602.95;105667;1257;66870;-69
2023/05/05 00:56:13;;;;;;;4.30;2.00;;;;;;;15.62;54.14;100601.91;105372;1262;60422;-70
2023/05/05 00:58:41;;;;;;;4.90;2.20;;;;;;;15.61;54.15;100599.70;105701;1259;60924;-68
2023/05/05 01:01:09;;;;;;;3.80;2.30;;;;;;;15.62;54.19;100602.78;105697;1252;66568;-72
2023/05/05 01:03:37;;;;;;;3.40;2.00;;;;;;;15.62;54.12;100600.45;106309;1254;61001;-69
2023/05/05 01:06:14;;;;;;;3.90;2.10;;;;;;;15.61;54.13;100601.23;105994;1253;66801;-69
2023/05/05 01:16:29;;;;;;;4.80;2.10;;;;;;;15.58;54.33;100596.08;102600;1295;601314;-68
2023/05/05 01:18:55;;;;;;;3.10;2.30;;;;;;;15.55;54.25;100593.16;104560;1267;59775;-73
2023/05/05 01:21:26;;;;;;;4.20;2.20;;;;;;;15.53;54.22;100591.90;104439;1273;59690;-69
2023/05/05 01:24:00;;;;;;;3.20;2.00;;;;;;;15.52;54.22;100594.31;104672;1271;66220;-70
2023/05/05 01:26:47;;;;;;;4.80;2.10;;;;;;;15.51;54.34;100593.77;104632;1273;62490;-69
2023/05/05 01:29:40;;;;;;;4.50;2.20;;;;;;;15.46;54.36;100591.11;107564;1264;178106;-71
2023/05/05 01:32:14;;;;;;;2.50;1.90;;;;;;;15.45;54.38;100589.14;104318;1277;59331;-68
2023/05/05 01:34:51;;;;;;;5.10;2.20;;;;;;;15.43;54.42;100583.06;104913;1270;59282;-70
2023/05/05 01:37:21;;;;;;;5.70;2.10;;;;;;;15.42;54.48;100578.16;104383;1275;66077;-70
2023/05/05 01:39:51;;;;;;;4.30;2.30;;;;;;;15.42;54.45;100575.77;104630;1273;59783;-72
2023/05/05 01:42:18;;;;;;;4.50;2.00;;;;;;;15.38;54.56;100575.56;104622;1267;74502;-73
2023/05/05 01:44:45;;;;;;;4.10;2.10;;;;;;;15.36;54.66;100576.17;104531;1280;59727;-69
2023/05/05 01:47:15;;;;;;;3.60;2.10;;;;;;;15.34;54.63;100570.98;104894;1264;59638;-68
2023/05/05 01:49:43;;;;;;;3.30;2.00;;;;;;;15.33;54.75;100570.52;104470;1273;66663;-68
2023/05/05 01:52:10;;;;;;;5.00;1.90;;;;;;;15.31;54.77;100570.71;104576;1271;60686;-69
2023/05/05 01:54:38;;;;;;;3.30;1.90;;;;;;;15.28;54.91;100571.24;104491;1271;66901;-69
2023/05/05 01:57:05;;;;;;;3.70;2.40;;;;;;;15.27;54.88;100570.16;104771;1270;59640;-70
2023/05/05 01:59:32;;;;;;;4.90;2.30;;;;;;;15.25;54.96;100568.70;104560;1270;59848;-70
2023/05/05 02:01:59;;;;;;;3.10;2.30;;;;;;;15.24;54.97;100564.34;104393;1264;65837;-70
2023/05/05 02:04:27;;;;;;;4.30;2.00;;;;;;;15.22;54.87;100562.61;104497;1264;59941;-70
2023/05/05 02:06:55;;;;;;;5.80;2.30;;;;;;;15.21;54.94;100562.84;104963;1270;66683;-70
2023/05/05 02:09:24;;;;;;;3.90;1.90;;;;;;;15.19;54.81;100564.14;105350;1262;59631;-70
2023/05/05 02:11:52;;;;;;;4.20;2.10;;;;;;;15.15;54.84;100563.06;105075;1260;60101;-68
2023/05/05 02:14:19;;;;;;;4.30;2.10;;;;;;;15.12;54.80;100563.41;105015;1257;65874;-72
2023/05/05 02:16:46;;;;;;;4.10;2.30;;;;;;;15.09;54.79;100562.39;105150;1266;59766;-70
2023/05/05 02:19:13;;;;;;;3.90;2.00;;;;;;;15.09;54.81;100565.14;105262;1257;66686;-70
2023/05/05 02:21:41;;;;;;;3.80;2.10;;;;;;;15.08;54.70;100559.21;105248;1257;59864;-71
2023/05/05 02:24:08;;;;;;;4.10;2.10;;;;;;;15.04;54.64;100561.61;104940;1257;59725;-69
2023/05/05 02:26:38;;;;;;;3.30;2.10;;;;;;;15.01;54.76;100564.08;105493;1260;65724;-70
2023/05/05 02:29:09;;;;;;;2.90;2.10;;;;;;;14.99;54.77;100562.71;105123;1263;60050;-70
2023/05/05 02:31:45;;;;;;;4.70;2.00;;;;;;;14.99;54.72;100564.52;105236;1257;66272;-69
2023/05/05 02:34:15;;;;;;;3.00;1.90;;;;;;;14.94;54.72;100559.95;105280;1257;59645;-71
2023/05/05 02:36:42;;;;;;;2.60;2.00;;;;;;;14.92;54.88;100561.45;105011;1256;60181;-69
2023/05/05 02:39:18;;;;;;;4.20;2.20;;;;;;;14.90;54.98;100562.66;105161;1257;69647;-68
2023/05/05 02:41:47;;;;;;;2.70;2.00;;;;;;;14.88;54.97;100561.38;105150;1266;59549;-69
2023/05/05 02:44:22;;;;;;;4.00;2.00;;;;;;;14.87;55.08;100561.30;105142;1262;66498;-72
2023/05/05 02:46:50;;;;;;;5.90;2.20;;;;;;;14.86;55.07;100563.52;104923;1264;59720;-69
2023/05/05 02:49:17;;;;;;;4.00;2.10;;;;;;;14.86;55.20;100566.21;105220;1256;59730;-69
2023/05/05 02:51:44;;;;;;;5.80;2.10;;;;;;;14.86;55.19;100567.99;105148;1260;66605;-68
2023/05/05 02:54:18;;;;;;;3.40;2.20;;;;;;;14.85;55.34;100571.95;105224;1261;60752;-70
2023/05/05 02:56:47;;;;;;;3.10;2.00;;;;;;;14.85;55.42;100571.24;105161;1257;66536;-72
2023/05/05 02:59:29;;;;;;;5.00;2.20;;;;;;;14.85;55.35;100570.66;105421;1257;59769;-69
2023/05/05 03:02:31;;;;;;;3.10;2.30;;;;;;;14.85;55.48;100571.59;105541;1270;60051;-70
2023/05/05 03:05:22;;;;;;;5.00;2.10;;;;;;;14.88;55.54;100574.00;105206;1262;66913;-70
2023/05/05 03:08:15;;;;;;;3.50;2.00;;;;;;;14.87;55.45;100577.09;105435;1257;61560;-70
2023/05/05 03:10:59;;;;;;;3.60;2.10;;;;;;;14.88;55.44;100576.14;105179;1257;66926;-69
2023/05/05 03:13:26;;;;;;;4.20;2.00;;;;;;;14.88;55.52;100576.27;105099;1261;59646;-71
2023/05/05 03:15:53;;;;;;;3.20;2.00;;;;;;;14.90;55.43;100577.72;105553;1257;59858;-70
2023/05/05 03:18:21;;;;;;;3.10;1.90;;;;;;;14.91;55.40;100577.83;105064;1257;65850;-70
2023/05/05 03:20:54;;;;;;;3.20;2.30;;;;;;;14.91;55.49;100577.29;104973;1258;61010;-69
2023/05/05 03:23:21;;;;;;;4.40;2.20;;;;;;;14.93;55.41;100581.40;105146;1258;66447;-69
2023/05/05 03:25:53;;;;;;;2.70;1.80;;;;;;;14.94;55.34;100581.28;105649;1257;59720;-70
2023/05/05 03:28:40;;;;;;;3.40;2.00;;;;;;;14.95;55.36;100584.70;105353;1260;59618;-69
2023/05/05 03:31:24;;;;;;;3.50;2.20;;;;;;;14.96;55.30;100588.31;105342;1257;67144;-68
2023/05/05 03:33:54;;;;;;;6.00;2.00;;;;;;;14.97;55.31;100585.04;105193;1257;60870;-68
2023/05/05 03:36:22;;;;;;;5.20;2.40;;;;;;;14.99;55.32;100586.86;105298;1257;66306;-70
2023/05/05 03:38:50;;;;;;;4.50;2.10;;;;;;;15.00;55.27;100585.80;105535;1263;59843;-69
2023/05/05 03:41:20;;;;;;;4.90;2.10;;;;;;;15.02;55.43;100585.83;105307;1260;60816;-70
2023/05/05 03:43:47;;;;;;;3.80;2.10;;;;;;;15.04;55.41;100584.15;105559;1257;66695;-70
2023/05/05 03:46:15;;;;;;;3.80;2.10;;;;;;;15.08;55.38;100587.91;105155;1257;60723;-70
2023/05/05 03:48:42;;;;;;;3.50;2.10;;;;;;;15.10;55.42;100591.80;105124;1263;66687;-69
2023/05/05 03:51:11;;;;;;;3.80;2.10;;;;;;;15.10;55.29;100592.30;105505;1258;59681;-72
2023/05/05 03:53:39;;;;;;;6.50;2.10;;;;;;;15.11;55.36;100588.64;105111;1260;59589;-70
2023/05/05 03:56:06;;;;;;;5.20;2.10;;;;;;;15.14;55.26;100590.50;105641;1256;67148;-69
2023/05/05 03:58:33;;;;;;;6.70;2.30;;;;;;;15.17;55.21;100592.39;105192;1257;61080;-70
2023/05/05 04:01:00;;;;;;;5.30;2.10;;;;;;;15.21;55.19;100594.83;104947;1261;66406;-69
2023/05/05 04:03:28;;;;;;;2.90;1.90;;;;;;;15.23;55.22;100592.63;105214;1261;59644;-69
2023/05/05 04:05:55;;;;;;;2.60;2.20;;;;;;;15.27;55.26;100593.04;105130;1263;59558;-68
2023/05/05 04:08:21;;;;;;;4.00;2.50;;;;;;;15.31;55.18;100595.31;105104;1258;65634;-69
2023/05/05 04:10:49;;;;;;;2.80;2.00;;;;;;;15.35;55.05;100595.08;105641;1257;60964;-70
2023/05/05 04:13:17;;;;;;;3.30;2.20;;;;;;;15.38;54.96;100596.38;105099;1260;65392;-70
2023/05/05 04:15:45;;;;;;;4.70;1.90;;;;;;;15.39;54.87;100599.29;105131;1264;59592;-72
2023/05/05 04:18:12;;;;;;;4.40;2.00;;;;;;;15.40;54.91;100600.80;105148;1262;59526;-69
2023/05/05 04:20:39;;;;;;;3.80;1.90;;;;;;;15.41;54.89;100602.04;105156;1257;66713;-68
2023/05/05 04:23:07;;;;;;;3.00;2.30;;;;;;;15.42;54.79;100601.23;105211;1257;61253;-68
2023/05/05 04:25:34;;;;;;;6.60;2.30;;;;;;;15.44;54.78;100605.20;105379;1257;66643;-70
2023/05/05 04:28:03;;;;;;;3.20;2.10;;;;;;;15.44;54.69;100610.33;104905;1268;60009;-69
2023/05/05 04:30:30;;;;;;;3.30;2.00;;;;;;;15.46;54.59;100611.76;105150;1257;59542;-69
2023/05/05 04:32:57;;;;;;;3.80;2.10;;;;;;;15.49;54.56;100613.08;105233;1257;66939;-69
2023/05/05 04:35:25;;;;;;;3.90;2.30;;;;;;;15.50;54.33;100616.36;105566;1257;60669;-69
2023/05/05 04:37:53;;;;;;;5.20;2.30;;;;;;;15.52;54.33;100615.97;105612;1258;66517;-69
2023/05/05 04:40:20;;;;;;;5.80;2.40;;;;;;;15.55;54.34;100614.07;104993;1257;59678;-72
2023/05/05 04:42:48;;;;;;;3.90;2.10;;;;;;;15.58;54.12;100616.97;105217;1256;59727;-69
2023/05/05 04:45:15;;;;;;;2.70;2.00;;;;;;;15.63;54.09;100618.15;105004;1258;65787;-70
2023/05/05 04:47:42;;;;;;;4.50;2.10;;;;;;;15.64;53.97;100618.04;104820;1258;60636;-70
2023/05/05 04:50:10;;;;;;;7.50;2.10;;;;;;;15.65;53.92;100618.88;105242;1260;66385;-71
2023/05/05 04:52:37;;;;;;;3.50;2.10;;;;;;;15.68;53.88;100620.64;105440;1258;59659;-69
2023/05/05 04:55:05;;;;;;;4.50;2.30;;;;;;;15.71;53.73;100623.02;105506;1258;61163;-68
2023/05/05 04:57:32;;;;;;;3.80;2.50;;;;;;;15.75;53.74;100625.81;105357;1255;68544;-68
2023/05/05 05:00:00;;;;;;;3.80;2.40;;;;;;;15.81;53.81;100621.48;105494;1254;60974;-69
2023/05/05 05:02:27;;;;;;;4.20;2.20;;;;;;;15.88;53.73;100622.29;105631;1258;65202;-70
2023/05/05 05:04:54;;;;;;;5.00;2.30;;;;;;;15.92;53.54;100622.91;105723;1254;59781;-68
2023/05/05 05:07:23;;;;;;;3.40;2.30;;;;;;;15.99;53.43;100626.27;105409;1254;59622;-70
2023/05/05 05:09:50;;;;;;;5.20;2.20;;;;;;;16.05;53.19;100624.65;105276;1254;65901;-68
2023/05/05 05:12:17;;;;;;;4.60;2.40;;;;;;;16.10;53.07;100619.92;105536;1254;60989;-68
2023/05/05 05:14:44;;;;;;;3.70;2.50;;;;;;;16.14;52.93;100621.50;105243;1262;66500;-68
2023/05/05 05:17:11;;;;;;;3.10;2.30;;;;;;;16.16;52.68;100619.80;105500;1257;59857;-71
2023/05/05 05:19:39;;;;;;;7.10;2.30;;;;;;;16.18;52.50;100619.83;105422;1256;59672;-70
2023/05/05 05:22:06;;;;;;;5.70;2.30;;;;;;;16.16;52.46;100623.89;105051;1260;66810;-70
2023/05/05 05:24:36;;;;;;;6.60;2.30;;;;;;;16.20;52.64;100624.95;105557;1260;61081;-73
2023/05/05 05:27:06;;;;;;;3.20;2.40;;;;;;;16.25;52.49;100627.77;105524;1257;66624;-68
2023/05/05 05:29:36;;;;;;;5.30;2.30;;;;;;;16.26;52.31;100625.88;105389;1257;60555;-70
2023/05/05 05:32:04;;;;;;;4.20;2.70;;;;;;;16.30;52.36;100623.77;105268;1255;60307;-69
2023/05/05 05:34:31;;;;;;;6.40;2.60;;;;;;;16.36;52.23;100626.20;105653;1260;67519;-70
2023/05/05 05:37:00;;;;;;;4.10;2.40;;;;;;;16.41;52.15;100630.11;105842;1254;60617;-70
2023/05/05 05:39:27;;;;;;;3.70;2.30;;;;;;;16.45;52.18;100625.35;105523;1257;66364;-71
2023/05/05 05:41:54;;;;;;;5.40;2.90;;;;;;;16.47;52.09;100625.73;105853;1255;60497;-70
2023/05/05 05:44:21;;;;;;;5.00;2.40;;;;;;;16.49;51.87;100626.62;105447;1254;60478;-70
2023/05/05 05:46:48;;;;;;;3.60;2.50;;;;;;;16.51;51.94;100630.18;105626;1254;66534;-71
2023/05/05 05:49:15;;;;;;;6.40;2.50;;;;;;;16.53;51.98;100635.19;105652;1255;69231;-70
2023/05/05 05:51:42;;;;;;;4.00;2.40;;;;;;;16.56;51.92;100638.38;105342;1260;68148;-71
2023/05/05 05:54:09;;;;;;;6.10;2.70;;;;;;;16.63;51.89;100637.57;105634;1254;60450;-70
2023/05/05 05:56:36;;;;;;;4.80;2.50;;;;;;;16.67;51.76;100636.98;105568;1254;60464;-73
2023/05/05 05:59:06;;;;;;;3.60;2.50;;;;;;;16.68;51.55;100638.08;105661;1253;67678;-69
2023/05/05 06:01:34;;;;;;;5.40;2.60;;;;;;;16.72;51.54;100636.17;107019;1254;60877;-69
2023/05/05 06:04:02;;;;;;;3.10;2.40;;;;;;;16.79;51.62;100634.55;105728;1254;66457;-71
2023/05/05 06:06:30;;;;;;;4.70;2.50;;;;;;;16.87;51.59;100639.52;105420;1260;60540;-70
2023/05/05 06:08:57;;;;;;;5.10;2.60;;;;;;;16.98;51.36;100638.39;105499;1254;60479;-70
2023/05/05 06:11:25;;;;;;;8.20;2.60;;;;;;;17.08;51.24;100635.23;105297;1254;66573;-71
2023/05/05 06:13:52;;;;;;;6.30;2.80;;;;;;;17.17;50.82;100635.44;105497;1260;69088;-71
2023/05/05 06:16:19;;;;;;;5.80;2.30;;;;;;;17.20;50.71;100633.52;105627;1254;65192;-76
2023/05/05 06:18:46;;;;;;;5.00;2.30;;;;;;;17.24;50.53;100634.14;105636;1257;60546;-70
2023/05/05 06:21:13;;;;;;;7.30;2.30;;;;;;;17.30;50.38;100634.55;105602;1255;60482;-70
2023/05/05 06:23:41;;;;;;;3.10;2.30;;;;;;;17.39;50.43;100631.73;105266;1254;67569;-70
2023/05/05 06:26:08;;;;;;;4.20;2.30;;;;;;;17.49;50.40;100629.92;105299;1260;60438;-71
2023/05/05 06:28:35;;;;;;;7.00;2.40;;;;;;;17.57;49.95;100625.73;105369;1255;66289;-72
2023/05/05 06:31:02;;;;;;;4.40;2.40;;;;;;;17.60;49.81;100625.95;105784;1257;60475;-71
2023/05/05 06:33:29;;;;;;;4.30;2.40;;;;;;;17.65;49.51;100626.63;105353;1260;60421;-69
2023/05/05 06:35:56;;;;;;;4.50;2.30;;;;;;;17.69;49.45;100624.99;105514;1254;67838;-69
2023/05/05 06:38:23;;;;;;;4.40;2.30;;;;;;;17.73;49.08;100627.17;105653;1254;60817;-70
2023/05/05 06:40:50;;;;;;;3.70;2.50;;;;;;;17.78;49.01;100626.07;105453;1254;66515;-73
2023/05/05 06:43:17;;;;;;;6.10;2.60;;;;;;;17.88;49.22;100629.73;105524;1254;60431;-70
2023/05/05 06:45:50;;;;;;;5.10;2.50;;;;;;;17.94;48.85;100633.52;105471;1254;60477;-69
2023/05/05 06:48:17;;;;;;;3.30;2.40;;;;;;;17.95;48.69;100630.62;105284;1261;67605;-71
2023/05/05 06:50:45;;;;;;;4.00;2.50;;;;;;;17.95;48.74;100632.95;105770;1259;60926;-70
2023/05/05 06:53:12;;;;;;;9.10;2.50;;;;;;;18.01;48.87;100634.91;105362;1254;66564;-70
2023/05/05 06:55:42;;;;;;;4.30;2.70;;;;;;;18.05;48.65;100630.11;105549;1253;60473;-70
2023/05/05 06:58:09;;;;;;;4.80;2.70;;;;;;;18.06;48.46;100627.48;105475;1254;60543;-71
2023/05/05 07:00:37;;;;;;;5.00;2.60;;;;;;;18.11;48.46;100625.38;105562;1254;67428;-71
2023/05/05 07:03:03;;;;;;;5.60;2.40;;;;;;;18.17;48.36;100623.21;105648;1253;60974;-73
2023/05/05 07:05:31;;;;;;;4.20;2.80;;;;;;;18.24;48.18;100623.40;105672;1257;66299;-73
2023/05/05 07:07:58;;;;;;;4.90;2.80;;;;;;;18.31;48.09;100623.34;105189;1256;60526;-70
2023/05/05 07:10:25;;;;;;;4.00;2.60;;;;;;;18.37;48.02;100627.48;105609;1254;60546;-70
2023/05/05 07:12:53;;;;;;;6.00;2.80;;;;;;;18.45;48.11;100630.60;105273;1254;66273;-70
2023/05/05 07:15:21;;;;;;;16.30;10.10;;;;;;;18.52;47.93;100633.17;105671;1253;61364;-70
2023/05/05 07:17:55;;;;;;;5.10;3.60;;;;;;;18.59;47.91;100635.05;105517;1254;66390;-69
2023/05/05 07:20:23;;;;;;;6.10;2.80;;;;;;;18.67;47.61;100631.63;105640;1259;60456;-69
2023/05/05 07:22:50;;;;;;;4.50;2.70;;;;;;;18.71;47.79;100633.08;105320;1254;60437;-69
2023/05/05 07:25:17;;;;;;;5.20;2.80;;;;;;;18.81;47.69;100635.38;105421;1254;66574;-71
2023/05/05 07:27:44;;;;;;;6.00;2.80;;;;;;;18.92;47.34;100632.79;105876;1253;60627;-72
2023/05/05 07:30:12;;;;;;;5.30;2.70;;;;;;;19.02;47.16;100629.15;105799;1256;66314;-70
2023/05/05 07:32:44;;;;;;;;;;;;;;;19.11;46.83;100629.20;105581;1257;60501;-69
2023/05/05 07:35:12;;;;;;;3.80;2.60;;;;;;;19.15;46.99;100629.33;105661;1254;60527;-72
2023/05/05 07:37:39;;;;;;;5.90;2.90;;;;;;;19.18;46.88;100630.25;105652;1254;67385;-71
2023/05/05 07:40:07;;;;;;;4.40;3.10;;;;;;;19.25;46.88;100633.21;105688;1256;60403;-71
2023/05/05 07:42:35;;;;;;;4.20;2.90;;;;;;;19.34;46.62;100633.95;105016;1255;65541;-72
2023/05/05 07:45:02;;;;;;;4.70;2.80;;;;;;;19.39;46.53;100631.90;105466;1254;60457;-71
2023/05/05 07:47:29;;;;;;;5.50;2.90;;;;;;;19.49;46.27;100635.33;105640;1256;60540;-70
2023/05/05 07:49:57;;;;;;;5.30;2.70;;;;;;;19.51;45.94;100639.40;105895;1253;67707;-70
2023/05/05 07:52:24;;;;;;;4.40;2.50;;;;;;;19.49;45.52;100633.11;105643;1258;60421;-72
2023/05/05 07:55:09;;;;;;;3.70;2.40;;;;;;;19.51;45.67;100633.23;105500;1257;66498;-70
2023/05/05 07:57:38;;;;;;;2.90;2.40;;;;;;;19.55;45.74;100634.46;105904;1254;60438;-70
2023/05/05 08:00:06;;;;;;;4.00;2.70;;;;;;;19.58;45.68;100633.09;105635;1257;60878;-72
2023/05/05 08:02:39;;;;;;;5.20;2.70;;;;;;;19.57;45.63;100629.74;105403;1262;67731;-70
2023/05/05 08:05:07;;;;;;;5.00;2.60;;;;;;;19.56;45.78;100633.83;109338;1254;60337;-72
2023/05/05 08:07:37;;;;;;;5.50;2.70;;;;;;;19.58;45.37;100628.90;109354;1252;65098;-71
2023/05/05 08:10:04;;;;;;;7.60;3.10;;;;;;;19.59;45.22;100630.80;109353;1254;58596;-70
2023/05/05 08:12:31;;;;;;;4.60;2.60;;;;;;;19.59;45.11;100627.94;109137;1253;58699;-71
2023/05/05 08:14:58;;;;;;;5.00;2.80;;;;;;;19.57;45.30;100624.88;109416;1253;66096;-73
2023/05/05 08:17:25;;;;;;;4.90;2.70;;;;;;;19.53;45.54;100627.33;109293;1253;60112;-70
2023/05/05 08:19:53;;;;;;;9.80;3.20;;;;;;;19.50;45.48;100628.22;109258;1254;74757;-70
2023/05/05 08:22:20;;;;;;;4.70;3.00;;;;;;;19.54;45.71;100631.02;109235;1254;58863;-73
2023/05/05 08:24:47;;;;;;;7.70;2.80;;;;;;;19.63;45.85;100633.52;109221;1253;58694;-69
2023/05/05 08:27:14;;;;;;;6.10;3.00;;;;;;;19.75;45.82;100631.14;109226;1253;67258;-67
2023/05/05 08:29:41;;;;;;;3.10;2.70;;;;;;;19.85;45.85;100630.13;108904;1254;59259;-74
2023/05/05 08:32:08;;;;;;;6.90;3.00;;;;;;;20.02;45.50;100634.66;109181;1253;66190;-68
2023/05/05 08:34:35;;;;;;;6.10;2.70;;;;;;;20.14;45.01;100631.80;109235;1253;58564;-69
2023/05/05 08:37:02;;;;;;;4.20;2.80;;;;;;;20.20;44.67;100633.91;109260;1253;58248;-70
2023/05/05 08:39:29;;;;;;;6.90;2.80;;;;;;;20.30;44.51;100632.89;109397;1252;67248;-71
2023/05/05 08:41:55;;;;;;;5.50;2.50;;;;;;;20.35;44.55;100625.52;109339;1254;60326;-71
2023/05/05 08:44:22;;;;;;;4.50;2.60;;;;;;;20.44;44.59;100625.07;109209;1253;66335;-73
2023/05/05 08:46:49;;;;;;;4.20;2.60;;;;;;;20.56;44.49;100623.67;109381;1254;58164;-71
2023/05/05 08:49:16;;;;;;;5.50;2.60;;;;;;;20.65;44.04;100622.79;109244;1254;58040;-73
2023/05/05 08:51:44;;;;;;;5.30;2.60;;;;;;;20.69;43.99;100624.77;109247;1253;67224;-70
2023/05/05 08:54:16;;;;;;;3.70;2.50;;;;;;;20.79;43.87;100626.24;109227;1253;59402;-70
2023/05/05 08:56:43;;;;;;;3.50;2.40;;;;;;;20.87;43.49;100628.73;109192;1253;65152;-70
2023/05/05 08:59:10;;;;;;;6.10;2.30;;;;;;;20.93;43.56;100631.50;109233;1254;58130;-72
2023/05/05 09:01:37;;;;;;;6.20;2.50;;;;;;;20.98;43.14;100629.77;109405;1253;58140;-71
2023/05/05 09:04:06;;;;;;;7.70;2.60;;;;;;;21.00;43.08;100628.80;109384;1254;64948;-71
2023/05/05 09:06:34;;;;;;;6.00;2.30;;;;;;;21.10;43.31;100627.34;109262;1253;60294;-71
2023/05/05 09:09:01;;;;;;;7.20;2.90;;;;;;;21.22;43.19;100627.80;109395;1254;65985;-70
2023/05/05 09:11:28;;;;;;;5.40;2.40;;;;;;;21.32;42.76;100626.64;109383;1253;58196;-71
2023/05/05 09:13:55;;;;;;;4.30;2.30;;;;;;;21.38;42.43;100625.98;109357;1253;58113;-72
2023/05/05 09:16:22;;;;;;;4.70;2.40;;;;;;;21.39;42.66;100619.77;109404;1253;75279;-72
2023/05/05 09:18:49;;;;;;;5.30;2.70;;;;;;;21.45;42.77;100615.91;109368;1253;59605;-72
2023/05/05 09:21:23;;;;;;;4.10;2.40;;;;;;;21.57;42.65;100616.39;109373;1253;66316;-73
2023/05/05 09:24:04;;;;;;;5.40;2.50;;;;;;;21.68;42.15;100610.46;109146;1253;58174;-71
2023/05/05 09:26:36;;;;;;;3.70;2.40;;;;;;;21.77;42.06;100611.93;109219;1252;58050;-70
2023/05/05 09:29:03;;;;;;;11.80;2.60;;;;;;;21.85;41.81;100607.01;109179;1254;66214;-69
2023/05/05 09:31:30;;;;;;;7.10;2.60;;;;;;;21.97;42.00;100607.95;109293;1254;59225;-72
2023/05/05 09:33:59;;;;;;;2.90;2.20;;;;;;;22.15;41.61;100605.80;109167;1253;66173;-72
2023/05/05 09:36:43;;;;;;;5.80;2.40;;;;;;;22.35;41.42;100605.42;109344;1254;58217;-71
2023/05/05 09:39:10;;;;;;;3.20;2.00;;;;;;;22.48;40.97;100599.95;109115;1254;58204;-72
2023/05/05 09:41:41;;;;;;;4.90;2.30;;;;;;;22.59;40.99;100601.19;109319;1254;67300;-71
2023/05/05 09:44:08;;;;;;;5.40;2.20;;;;;;;22.73;40.78;100599.48;109116;1254;60218;-70
2023/05/05 09:46:35;;;;;;;4.90;2.30;;;;;;;22.88;40.34;100598.70;109186;1254;66165;-71
2023/05/05 09:49:13;;;;;;;3.20;2.30;;;;;;;22.97;40.27;100601.60;109204;1254;58539;-69
2023/05/05 09:51:40;;;;;;;5.90;2.20;;;;;;;23.05;40.19;100594.94;109104;1254;58165;-71
2023/05/05 09:54:07;;;;;;;7.00;2.30;;;;;;;23.10;39.63;100594.02;109222;1254;67251;-70
2023/05/05 10:01:20;;;;;;;4.40;2.50;;;;;;;23.10;39.76;100598.53;109211;1254;66022;-71
2023/05/05 10:03:53;;;;;;;6.20;2.20;;;;;;;23.19;39.78;100591.33;109064;1254;58112;-71
2023/05/05 10:06:20;;;;;;;3.20;1.90;;;;;;;23.29;39.65;100588.40;109120;1254;58029;-70
2023/05/05 10:08:59;;;;;;;4.50;2.00;;;;;;;23.36;39.37;100586.90;109103;1254;67028;-69
2023/05/05 10:11:26;;;;;;;5.10;2.40;;;;;;;23.47;38.88;100591.77;109142;1254;60657;-71
2023/05/05 10:13:53;;;;;;;3.40;2.30;;;;;;;23.57;38.36;100590.70;109193;1256;64988;-71
2023/05/05 10:16:19;;;;;;;3.40;2.10;;;;;;;23.67;38.41;100588.56;109128;1254;58193;-73
2023/05/05 10:18:46;;;;;;;4.80;2.00;;;;;;;23.81;38.36;100585.53;109221;1254;58214;-70
2023/05/05 10:21:14;;;;;;;5.30;1.90;;;;;;;23.95;38.39;100586.48;109142;1254;67109;-70
2023/05/05 10:23:48;;;;;;;6.00;2.10;;;;;;;24.13;37.86;100582.70;109150;1254;59484;-68
2023/05/05 10:30:43;;;;;;;6.10;2.20;;;;;;;24.72;37.14;100577.05;109196;1254;58188;-69
2023/05/05 10:33:15;;;;;;;3.40;1.90;;;;;;;24.95;36.63;100573.87;109163;1254;58214;-71
2023/05/05 10:36:00;;;;;;;3.40;1.90;;;;;;;25.19;36.44;100569.39;109162;1254;67103;-71
2023/05/05 10:38:28;;;;;;;3.90;2.00;;;;;;;25.43;35.82;100571.27;109138;1257;60401;-71
2023/05/05 10:40:55;;;;;;;4.10;2.10;;;;;;;25.62;35.43;100568.89;109143;1256;66137;-71
2023/05/05 10:43:22;;;;;;;3.20;2.10;;;;;;;25.74;34.93;100566.27;109161;1256;58569;-70
2023/05/05 10:45:49;;;;;;;5.10;1.80;;;;;;;25.87;34.76;100562.95;109247;1256;58091;-72
2023/05/05 10:53:27;;;;;;;3.30;2.00;;;;;;;26.21;34.17;100565.56;109296;1255;60554;-72
2023/05/05 10:56:24;;;;;;;5.00;1.90;;;;;;;26.41;34.17;100563.22;109086;1255;64730;-72
2023/05/05 10:58:51;;;;;;;3.00;1.70;;;;;;;26.60;33.58;100557.81;109141;1256;58108;-73
2023/05/05 11:01:33;;;;;;;2.70;2.00;;;;;;;26.73;33.00;100549.56;109068;1257;58192;-73
2023/05/05 11:04:20;;;;;;;9.60;2.40;;;;;;;26.89;32.86;100553.15;109240;1256;66226;-70
2023/05/05 11:07:09;;;;;;;23.20;3.00;;;;;;;27.05;32.32;100550.17;109116;1255;60259;-70
2023/05/05 11:09:56;;;;;;;7.00;2.00;;;;;;;27.03;32.67;100550.91;109175;1256;64658;-72
2023/05/05 11:12:23;;;;;;;;;;;;;;;27.10;32.21;100544.53;109198;1256;58049;-78
2023/05/05 11:15:26;;;;;;;4.10;1.90;;;;;;;27.11;32.03;100537.63;109206;1255;58049;-74
2023/05/05 11:17:56;;;;;;;5.70;1.90;;;;;;;27.13;31.94;100534.13;108871;1263;67058;-73
2023/05/05 11:20:35;;;;;;;7.00;2.20;;;;;;;27.14;31.94;100541.29;109097;1255;60488;-73
2023/05/05 11:23:02;;;;;;;3.50;1.90;;;;;;;27.14;31.59;100535.02;109171;1257;65181;-74
2023/05/05 11:25:33;;;;;;;5.10;2.10;;;;;;;27.24;31.67;100534.90;109128;1256;58184;-74
2023/05/05 11:33:12;;;;;;;4.30;2.10;;;;;;;27.70;31.30;100526.72;109370;1255;64968;-72
2023/05/05 11:36:01;;;;;;;6.40;2.20;;;;;;;27.91;31.21;100526.79;109229;1256;59320;-73
2023/05/05 11:38:34;;;;;;;3.80;2.00;;;;;;;28.06;30.66;100522.67;109119;1256;65261;-73
2023/05/05 11:41:09;;;;;;;5.60;2.20;;;;;;;28.16;30.44;100521.52;109155;1256;58573;-75
2023/05/05 11:43:35;;;;;;;3.40;2.10;;;;;;;28.31;30.24;100518.70;109140;1256;58088;-73
2023/05/05 11:46:15;;;;;;;3.50;2.00;;;;;;;28.42;29.63;100518.69;109122;1255;67524;-72
2023/05/05 11:48:46;;;;;;;4.90;2.30;;;;;;;28.35;29.79;100518.09;109096;1256;60612;-72
2023/05/05 11:51:13;;;;;;;3.50;2.30;;;;;;;28.39;29.81;100512.76;109108;1257;64935;-73
2023/05/05 11:53:47;;;;;;;5.10;2.30;;;;;;;28.46;29.76;100513.09;109164;1256;58206;-77
2023/05/05 11:56:21;;;;;;;4.00;2.10;;;;;;;28.44;29.48;100513.91;109053;1257;58218;-76